This is the latest recevied weather packets stored in our database for station/object YC0TBU. If no packets are shown the sender has not sent any weather packets the latest 10 day(s).
| Time | Temp. | Humidity | Pressure | Rain* | Wind** | Luminosity | Snow |
|---|---|---|---|---|---|---|---|
| 1777264173 | 34.44° C | 47% | 1006 hPa | - | - | 0 W/m² | - |
| 1777263851 | 34.44° C | 48% | 1006 hPa | - | - | 0 W/m² | - |
| 1777263529 | 33.89° C | 49% | 1006 hPa | - | - | 0 W/m² | - |
| 1777263207 | 33.89° C | 50% | 1006 hPa | - | - | 0 W/m² | - |
| 1777262885 | 33.89° C | 51% | 1006 hPa | - | - | 0 W/m² | - |
| 1777262563 | 33.89° C | 50% | 1006 hPa | - | - | 0 W/m² | - |
| 1777262241 | 33.89° C | 50% | 1006 hPa | - | - | 0 W/m² | - |
| 1777261919 | 33.33° C | 52% | 1006 hPa | - | - | 0 W/m² | - |
| 1777261597 | 33.33° C | 51% | 1006 hPa | - | - | 0 W/m² | - |
| 1777261275 | 33.33° C | 52% | 1006 hPa | - | - | 0 W/m² | - |
| 1777260953 | 33.33° C | 53% | 1006 hPa | - | - | 0 W/m² | - |
| 1777260631 | 33.33° C | 52% | 1007 hPa | - | - | 0 W/m² | - |
| 1777260309 | 33.33° C | 53% | 1007 hPa | - | - | 0 W/m² | - |
| 1777259987 | 33.33° C | 54% | 1007 hPa | - | - | 0 W/m² | - |
| 1777259665 | 32.78° C | 55% | 1007 hPa | - | - | 0 W/m² | - |
| 1777259343 | 32.78° C | 56% | 1007 hPa | - | - | 0 W/m² | - |
| 1777259021 | 32.78° C | 58% | 1007 hPa | - | - | 0 W/m² | - |
| 1777258699 | 32.22° C | 58% | 1007 hPa | - | - | 0 W/m² | - |
| 1777258377 | 32.78° C | 58% | 1007 hPa | - | - | 0 W/m² | - |
| 1777258055 | 32.78° C | 59% | 1007 hPa | - | - | 0 W/m² | - |
| 1777257733 | 33.33° C | 56% | 1007 hPa | - | - | 0 W/m² | - |
| 1777257411 | 36.11° C | 49% | 1007 hPa | - | - | 0 W/m² | - |
| 1777257089 | 36.11° C | 49% | 1007 hPa | - | - | 0 W/m² | - |
| 1777256767 | 36.11° C | 49% | 1007 hPa | - | - | 0 W/m² | - |
| 1777256445 | 36.11° C | 49% | 1007 hPa | - | - | 0 W/m² | - |
* Rain since midnight (hover to see other rain measurements)
** Current wind speed in m/s (hover to see current wind gust speed)